sensor_id;sensor_type;location;lat;lon;timestamp;pressure;altitude;pressure_sealevel;temperature;humidity
47761;BME280;33524;55.434;38.520;2023-05-21T00:02:39;100963.56;;;10.06;87.98
47761;BME280;33524;55.434;38.520;2023-05-21T00:05:08;100960.19;;;10.04;88.87
47761;BME280;33524;55.434;38.520;2023-05-21T00:07:41;100961.06;;;10.05;89.04
47761;BME280;33524;55.434;38.520;2023-05-21T00:10:10;100959.34;;;10.04;88.83
47761;BME280;33524;55.434;38.520;2023-05-21T00:12:38;100962.75;;;10.06;88.05
47761;BME280;33524;55.434;38.520;2023-05-21T00:15:06;100961.69;;;10.08;88.70
47761;BME280;33524;55.434;38.520;2023-05-21T00:17:35;100954.69;;;10.09;88.78
47761;BME280;33524;55.434;38.520;2023-05-21T00:20:04;100954.56;;;10.10;88.69
47761;BME280;33524;55.434;38.520;2023-05-21T00:22:36;100954.47;;;10.12;88.79
47761;BME280;33524;55.434;38.520;2023-05-21T00:25:04;100948.00;;;10.18;87.79
47761;BME280;33524;55.434;38.520;2023-05-21T00:27:33;100949.22;;;10.12;89.39
47761;BME280;33524;55.434;38.520;2023-05-21T00:30:02;100960.56;;;10.13;89.72
47761;BME280;33524;55.434;38.520;2023-05-21T00:32:35;100958.59;;;10.16;88.72
47761;BME280;33524;55.434;38.520;2023-05-21T00:35:05;100952.44;;;10.17;88.57
47761;BME280;33524;55.434;38.520;2023-05-21T00:37:33;100958.44;;;10.19;88.37
47761;BME280;33524;55.434;38.520;2023-05-21T00:40:01;100948.94;;;10.17;88.32
47761;BME280;33524;55.434;38.520;2023-05-21T00:42:32;100957.41;;;10.22;88.19
47761;BME280;33524;55.434;38.520;2023-05-21T00:45:00;100963.56;;;10.21;88.26
47761;BME280;33524;55.434;38.520;2023-05-21T00:47:31;100954.84;;;10.20;88.24
47761;BME280;33524;55.434;38.520;2023-05-21T00:50:01;100954.09;;;10.18;89.53
47761;BME280;33524;55.434;38.520;2023-05-21T00:52:30;100956.72;;;10.18;89.45
47761;BME280;33524;55.434;38.520;2023-05-21T00:54:59;100961.16;;;10.18;89.73
47761;BME280;33524;55.434;38.520;2023-05-21T00:57:28;100958.53;;;10.18;89.44
47761;BME280;33524;55.434;38.520;2023-05-21T00:59:56;100959.56;;;10.15;89.71
47761;BME280;33524;55.434;38.520;2023-05-21T01:02:24;100958.59;;;10.16;89.69
47761;BME280;33524;55.434;38.520;2023-05-21T01:04:53;100947.44;;;10.13;89.57
47761;BME280;33524;55.434;38.520;2023-05-21T01:07:23;100950.72;;;10.16;90.09
47761;BME280;33524;55.434;38.520;2023-05-21T01:09:51;100957.69;;;10.17;89.32
47761;BME280;33524;55.434;38.520;2023-05-21T01:12:22;100950.94;;;10.13;88.88
47761;BME280;33524;55.434;38.520;2023-05-21T01:14:51;100952.59;;;10.14;89.77
47761;BME280;33524;55.434;38.520;2023-05-21T01:17:20;100957.84;;;10.14;90.15
47761;BME280;33524;55.434;38.520;2023-05-21T01:19:51;100957.47;;;10.20;88.98
47761;BME280;33524;55.434;38.520;2023-05-21T01:22:21;100957.56;;;10.19;89.10
47761;BME280;33524;55.434;38.520;2023-05-21T01:24:53;100956.56;;;10.21;88.92
47761;BME280;33524;55.434;38.520;2023-05-21T01:27:22;100957.41;;;10.22;88.54
47761;BME280;33524;55.434;38.520;2023-05-21T01:29:50;100955.59;;;10.22;89.32
47761;BME280;33524;55.434;38.520;2023-05-21T01:35:10;100954.47;;;10.55;80.51
47761;BME280;33524;55.434;38.520;2023-05-21T01:37:52;100956.69;;;10.61;83.21
47761;BME280;33524;55.434;38.520;2023-05-21T01:40:32;100950.72;;;10.45;86.75
47761;BME280;33524;55.434;38.520;2023-05-21T01:43:05;100945.66;;;10.42;87.61
47761;BME280;33524;55.434;38.520;2023-05-21T01:45:36;100948.94;;;10.45;89.83
47761;BME280;33524;55.434;38.520;2023-05-21T01:48:08;100954.94;;;10.47;90.47
47761;BME280;33524;55.434;38.520;2023-05-21T01:50:38;100950.09;;;10.68;79.48
47761;BME280;33524;55.434;38.520;2023-05-21T01:53:08;100952.28;;;10.62;87.78
47761;BME280;33524;55.434;38.520;2023-05-21T01:55:36;100948.53;;;10.52;88.67
47761;BME280;33524;55.434;38.520;2023-05-21T01:58:08;100952.13;;;10.50;88.28
47761;BME280;33524;55.434;38.520;2023-05-21T02:00:36;100962.00;;;10.47;88.25
47761;BME280;33524;55.434;38.520;2023-05-21T02:03:07;100959.34;;;10.47;89.27
47761;BME280;33524;55.434;38.520;2023-05-21T02:05:36;100971.66;;;10.46;89.06
47761;BME280;33524;55.434;38.520;2023-05-21T02:08:04;100954.63;;;10.52;88.00
47761;BME280;33524;55.434;38.520;2023-05-21T02:10:35;100963.75;;;10.61;85.70
47761;BME280;33524;55.434;38.520;2023-05-21T02:13:04;100956.56;;;10.50;88.21
47761;BME280;33524;55.434;38.520;2023-05-21T02:15:32;100959.06;;;10.52;87.67
47761;BME280;33524;55.434;38.520;2023-05-21T02:18:04;100968.16;;;10.60;83.63
47761;BME280;33524;55.434;38.520;2023-05-21T02:20:53;100961.56;;;10.67;85.73
47761;BME280;33524;55.434;38.520;2023-05-21T02:23:21;100954.47;;;10.55;87.26
47761;BME280;33524;55.434;38.520;2023-05-21T02:25:50;100963.09;;;10.57;87.96
47761;BME280;33524;55.434;38.520;2023-05-21T02:28:18;100965.47;;;10.75;82.49
47761;BME280;33524;55.434;38.520;2023-05-21T02:30:46;100963.59;;;10.77;83.91
47761;BME280;33524;55.434;38.520;2023-05-21T02:33:15;100965.50;;;11.02;79.10
47761;BME280;33524;55.434;38.520;2023-05-21T02:35:43;100960.88;;;11.05;76.89
47761;BME280;33524;55.434;38.520;2023-05-21T02:38:11;100962.41;;;10.95;75.43
47761;BME280;33524;55.434;38.520;2023-05-21T02:40:40;100970.88;;;11.00;81.05
47761;BME280;33524;55.434;38.520;2023-05-21T02:43:08;100971.78;;;10.72;85.36
47761;BME280;33524;55.434;38.520;2023-05-21T02:45:37;100966.78;;;10.82;82.77
47761;BME280;33524;55.434;38.520;2023-05-21T02:48:06;100968.69;;;10.80;84.04
47761;BME280;33524;55.434;38.520;2023-05-21T02:50:36;100952.22;;;11.03;75.52
47761;BME280;33524;55.434;38.520;2023-05-21T02:53:04;100972.50;;;11.28;72.15
47761;BME280;33524;55.434;38.520;2023-05-21T02:55:33;100972.19;;;11.20;72.57
47761;BME280;33524;55.434;38.520;2023-05-21T02:58:02;100974.50;;;11.12;77.14
47761;BME280;33524;55.434;38.520;2023-05-21T03:00:30;100974.50;;;11.12;76.82
47761;BME280;33524;55.434;38.520;2023-05-21T03:02:59;100975.09;;;11.03;78.48
47761;BME280;33524;55.434;38.520;2023-05-21T03:05:27;100974.34;;;10.74;83.34
47761;BME280;33524;55.434;38.520;2023-05-21T03:07:55;100976.47;;;10.81;81.17
47761;BME280;33524;55.434;38.520;2023-05-21T03:10:24;100976.41;;;10.68;83.19
47761;BME280;33524;55.434;38.520;2023-05-21T03:12:53;100970.56;;;10.78;80.30
47761;BME280;33524;55.434;38.520;2023-05-21T03:15:21;100969.03;;;10.88;80.72
47761;BME280;33524;55.434;38.520;2023-05-21T03:17:52;100970.75;;;10.75;83.42
47761;BME280;33524;55.434;38.520;2023-05-21T03:20:22;100974.66;;;10.96;76.40
47761;BME280;33524;55.434;38.520;2023-05-21T03:22:50;100973.63;;;11.11;78.51
47761;BME280;33524;55.434;38.520;2023-05-21T03:25:19;100978.47;;;11.05;80.28
47761;BME280;33524;55.434;38.520;2023-05-21T03:27:48;100974.06;;;11.18;78.90
47761;BME280;33524;55.434;38.520;2023-05-21T03:30:17;100975.47;;;10.97;82.15
47761;BME280;33524;55.434;38.520;2023-05-21T03:32:47;100966.09;;;10.93;82.98
47761;BME280;33524;55.434;38.520;2023-05-21T03:35:16;100972.00;;;11.36;73.28
47761;BME280;33524;55.434;38.520;2023-05-21T03:37:44;100971.69;;;11.28;76.81
47761;BME280;33524;55.434;38.520;2023-05-21T03:40:13;100975.81;;;11.45;72.13
47761;BME280;33524;55.434;38.520;2023-05-21T03:42:43;100975.06;;;11.43;74.88
47761;BME280;33524;55.434;38.520;2023-05-21T03:45:14;100973.41;;;11.42;78.88
47761;BME280;33524;55.434;38.520;2023-05-21T03:47:45;100965.94;;;11.48;79.80
47761;BME280;33524;55.434;38.520;2023-05-21T03:50:13;100972.28;;;11.84;73.02
47761;BME280;33524;55.434;38.520;2023-05-21T03:52:41;100972.91;;;11.75;77.60
47761;BME280;33524;55.434;38.520;2023-05-21T03:55:10;100975.38;;;12.04;68.53
47761;BME280;33524;55.434;38.520;2023-05-21T03:57:38;100969.25;;;11.90;77.39
47761;BME280;33524;55.434;38.520;2023-05-21T04:00:08;100960.91;;;11.97;77.19
47761;BME280;33524;55.434;38.520;2023-05-21T04:02:42;100973.81;;;12.01;73.00
47761;BME280;33524;55.434;38.520;2023-05-21T04:05:12;100960.91;;;12.22;77.87
47761;BME280;33524;55.434;38.520;2023-05-21T04:07:40;100971.31;;;12.37;73.23
47761;BME280;33524;55.434;38.520;2023-05-21T04:10:09;100971.44;;;12.35;77.34
47761;BME280;33524;55.434;38.520;2023-05-21T04:12:37;100973.22;;;12.96;64.24
47761;BME280;33524;55.434;38.520;2023-05-21T04:15:06;100972.13;;;12.87;74.62
47761;BME280;33524;55.434;38.520;2023-05-21T04:17:34;100960.59;;;12.64;75.13
47761;BME280;33524;55.434;38.520;2023-05-21T04:20:03;100972.13;;;12.87;72.98
47761;BME280;33524;55.434;38.520;2023-05-21T04:22:31;100970.19;;;13.37;63.43
47761;BME280;33524;55.434;38.520;2023-05-21T04:25:00;100962.78;;;13.53;64.08
47761;BME280;33524;55.434;38.520;2023-05-21T04:27:30;100968.53;;;13.36;73.06
47761;BME280;33524;55.434;38.520;2023-05-21T04:29:58;100961.78;;;13.32;73.74
47761;BME280;33524;55.434;38.520;2023-05-21T04:32:26;100960.91;;;13.67;72.69
47761;BME280;33524;55.434;38.520;2023-05-21T04:34:55;100965.47;;;13.76;65.71
47761;BME280;33524;55.434;38.520;2023-05-21T04:37:24;100966.47;;;14.31;63.54
47761;BME280;33524;55.434;38.520;2023-05-21T04:39:53;100955.50;;;14.59;62.59
47761;BME280;33524;55.434;38.520;2023-05-21T04:42:22;100964.91;;;14.40;67.88
47761;BME280;33524;55.434;38.520;2023-05-21T04:44:54;100963.94;;;14.41;66.38
47761;BME280;33524;55.434;38.520;2023-05-21T04:47:23;100961.91;;;14.22;68.64
47761;BME280;33524;55.434;38.520;2023-05-21T04:49:52;100958.16;;;14.13;68.50
47761;BME280;33524;55.434;38.520;2023-05-21T04:52:20;100956.84;;;14.64;63.69
47761;BME280;33524;55.434;38.520;2023-05-21T04:54:51;100950.78;;;15.38;56.77
47761;BME280;33524;55.434;38.520;2023-05-21T04:57:20;100947.00;;;14.99;64.59
47761;BME280;33524;55.434;38.520;2023-05-21T04:59:51;100952.53;;;15.49;57.88
47761;BME280;33524;55.434;38.520;2023-05-21T05:02:19;100952.63;;;15.68;56.90
47761;BME280;33524;55.434;38.520;2023-05-21T05:04:47;100958.31;;;15.01;65.84
47761;BME280;33524;55.434;38.520;2023-05-21T05:07:16;100958.38;;;14.78;66.51
47761;BME280;33524;55.434;38.520;2023-05-21T05:09:44;100952.22;;;15.42;61.15
47761;BME280;33524;55.434;38.520;2023-05-21T05:12:12;100956.44;;;15.12;64.78
47761;BME280;33524;55.434;38.520;2023-05-21T05:14:42;100959.31;;;14.77;65.70
47761;BME280;33524;55.434;38.520;2023-05-21T05:17:10;100961.78;;;15.01;63.34
47761;BME280;33524;55.434;38.520;2023-05-21T05:19:42;100961.78;;;15.54;62.08
47761;BME280;33524;55.434;38.520;2023-05-21T05:22:10;100954.59;;;15.45;62.83
47761;BME280;33524;55.434;38.520;2023-05-21T05:24:40;100960.72;;;15.46;63.85
47761;BME280;33524;55.434;38.520;2023-05-21T05:27:09;100969.88;;;15.21;63.66
47761;BME280;33524;55.434;38.520;2023-05-21T05:29:37;100971.56;;;15.22;60.38
47761;BME280;33524;55.434;38.520;2023-05-21T05:32:06;100973.59;;;14.97;63.86
47761;BME280;33524;55.434;38.520;2023-05-21T05:34:36;100969.19;;;14.75;64.83
47761;BME280;33524;55.434;38.520;2023-05-21T05:37:04;100966.59;;;14.96;62.51
47761;BME280;33524;55.434;38.520;2023-05-21T05:39:32;100965.50;;;15.31;60.23
47761;BME280;33524;55.434;38.520;2023-05-21T05:42:02;100978.44;;;15.24;60.04
47761;BME280;33524;55.434;38.520;2023-05-21T05:44:30;100976.09;;;14.66;63.79
47761;BME280;33524;55.434;38.520;2023-05-21T05:46:59;100983.03;;;14.67;62.53
47761;BME280;33524;55.434;38.520;2023-05-21T05:49:27;100976.44;;;14.73;62.17
47761;BME280;33524;55.434;38.520;2023-05-21T05:51:56;100977.19;;;14.41;63.87
47761;BME280;33524;55.434;38.520;2023-05-21T05:54:24;100988.59;;;14.64;62.72
47761;BME280;33524;55.434;38.520;2023-05-21T05:56:53;100983.13;;;15.74;58.58
47761;BME280;33524;55.434;38.520;2023-05-21T05:59:21;100970.75;;;17.06;53.58
47761;BME280;33524;55.434;38.520;2023-05-21T06:01:49;100967.53;;;16.42;56.92
47761;BME280;33524;55.434;38.520;2023-05-21T06:04:18;100965.87;;;15.80;58.40
47761;BME280;33524;55.434;38.520;2023-05-21T06:06:47;100962.50;;;18.05;51.38
47761;BME280;33524;55.434;38.520;2023-05-21T06:09:15;100953.69;;;19.13;47.78
47761;BME280;33524;55.434;38.520;2023-05-21T06:11:44;100958.91;;;18.79;48.89
47761;BME280;33524;55.434;38.520;2023-05-21T06:14:12;100963.84;;;19.10;47.71
47761;BME280;33524;55.434;38.520;2023-05-21T06:16:41;100972.03;;;17.88;49.52
47761;BME280;33524;55.434;38.520;2023-05-21T06:19:10;100967.66;;;18.06;49.54
47761;BME280;33524;55.434;38.520;2023-05-21T06:21:38;100961.56;;;19.77;46.95
47761;BME280;33524;55.434;38.520;2023-05-21T06:24:06;100964.53;;;18.94;48.35
47761;BME280;33524;55.434;38.520;2023-05-21T06:26:35;100966.94;;;17.47;51.22
47761;BME280;33524;55.434;38.520;2023-05-21T06:29:03;100959.63;;;19.43;46.89
47761;BME280;33524;55.434;38.520;2023-05-21T06:31:31;100960.81;;;19.23;48.50
47761;BME280;33524;55.434;38.520;2023-05-21T06:34:00;100963.13;;;19.26;47.33
47761;BME280;33524;55.434;38.520;2023-05-21T06:36:29;100972.50;;;19.12;48.11
47761;BME280;33524;55.434;38.520;2023-05-21T06:38:59;100972.37;;;19.75;45.88
47761;BME280;33524;55.434;38.520;2023-05-21T06:41:45;100975.66;;;18.62;49.58
47761;BME280;33524;55.434;38.520;2023-05-21T06:44:31;100972.75;;;18.55;47.96
47761;BME280;33524;55.434;38.520;2023-05-21T06:47:00;100966.34;;;20.42;44.60
47761;BME280;33524;55.434;38.520;2023-05-21T06:49:31;100960.22;;;21.58;44.19
47761;BME280;33524;55.434;38.520;2023-05-21T06:51:59;100961.91;;;19.38;45.30
47761;BME280;33524;55.434;38.520;2023-05-21T06:54:27;100961.22;;;20.06;43.96
47761;BME280;33524;55.434;38.520;2023-05-21T06:56:55;100966.06;;;20.11;47.34
47761;BME280;33524;55.434;38.520;2023-05-21T06:59:24;100970.62;;;20.19;45.07
47761;BME280;33524;55.434;38.520;2023-05-21T07:01:53;100976.94;;;18.58;47.61
47761;BME280;33524;55.434;38.520;2023-05-21T07:04:22;100968.34;;;19.98;44.90
47761;BME280;33524;55.434;38.520;2023-05-21T07:06:50;100972.53;;;18.94;50.20
47761;BME280;33524;55.434;38.520;2023-05-21T07:09:18;100978.69;;;20.01;46.71
47761;BME280;33524;55.434;38.520;2023-05-21T07:11:47;100973.53;;;19.55;45.21
47761;BME280;33524;55.434;38.520;2023-05-21T07:14:16;100977.44;;;18.43;48.24
47761;BME280;33524;55.434;38.520;2023-05-21T07:16:44;100979.03;;;17.79;50.43
47761;BME280;33524;55.434;38.520;2023-05-21T07:19:14;100973.41;;;18.85;46.04
47761;BME280;33524;55.434;38.520;2023-05-21T07:21:42;100970.28;;;20.13;45.03
47761;BME280;33524;55.434;38.520;2023-05-21T07:24:10;100987.00;;;18.91;47.40
47761;BME280;33524;55.434;38.520;2023-05-21T07:26:51;100977.91;;;18.01;48.04
47761;BME280;33524;55.434;38.520;2023-05-21T07:29:22;100988.84;;;18.35;48.08
47761;BME280;33524;55.434;38.520;2023-05-21T07:31:53;100974.69;;;20.73;48.03
47761;BME280;33524;55.434;38.520;2023-05-21T07:34:28;100976.94;;;19.83;46.48
47761;BME280;33524;55.434;38.520;2023-05-21T07:37:00;100974.72;;;21.06;46.73
47761;BME280;33524;55.434;38.520;2023-05-21T07:39:28;100973.34;;;20.69;42.85
47761;BME280;33524;55.434;38.520;2023-05-21T07:41:57;100968.06;;;21.60;44.93
47761;BME280;33524;55.434;38.520;2023-05-21T07:44:25;100967.62;;;22.04;44.12
47761;BME280;33524;55.434;38.520;2023-05-21T07:46:54;100967.03;;;20.95;45.12
47761;BME280;33524;55.434;38.520;2023-05-21T07:49:23;100962.16;;;20.31;43.77
47761;BME280;33524;55.434;38.520;2023-05-21T07:51:52;100963.50;;;20.78;48.19
47761;BME280;33524;55.434;38.520;2023-05-21T07:54:20;100956.41;;;23.25;41.64
47761;BME280;33524;55.434;38.520;2023-05-21T07:56:48;100958.81;;;24.84;39.01
47761;BME280;33524;55.434;38.520;2023-05-21T07:59:19;100950.31;;;24.80;39.28
47761;BME280;33524;55.434;38.520;2023-05-21T08:01:47;100951.50;;;23.67;39.50
47761;BME280;33524;55.434;38.520;2023-05-21T08:04:16;100952.06;;;25.31;37.67
47761;BME280;33524;55.434;38.520;2023-05-21T08:06:45;100959.09;;;24.89;39.12
47761;BME280;33524;55.434;38.520;2023-05-21T08:09:26;100959.97;;;24.23;41.29
47761;BME280;33524;55.434;38.520;2023-05-21T08:11:55;100959.31;;;26.96;35.50
47761;BME280;33524;55.434;38.520;2023-05-21T08:14:23;100948.09;;;27.73;34.20
47761;BME280;33524;55.434;38.520;2023-05-21T08:16:52;100941.56;;;28.14;33.54
47761;BME280;33524;55.434;38.520;2023-05-21T08:19:21;100959.13;;;27.11;35.59
47761;BME280;33524;55.434;38.520;2023-05-21T08:22:02;100959.75;;;27.13;31.60
47761;BME280;33524;55.434;38.520;2023-05-21T08:24:31;100937.44;;;28.05;34.19
47761;BME280;33524;55.434;38.520;2023-05-21T08:27:17;100936.75;;;28.23;33.95
47761;BME280;33524;55.434;38.520;2023-05-21T08:29:45;100940.22;;;28.30;34.06
47761;BME280;33524;55.434;38.520;2023-05-21T08:32:14;100939.66;;;28.66;33.48
47761;BME280;33524;55.434;38.520;2023-05-21T08:34:43;100935.06;;;28.28;28.71
47761;BME280;33524;55.434;38.520;2023-05-21T08:37:12;100927.50;;;27.72;34.37
47761;BME280;33524;55.434;38.520;2023-05-21T08:39:43;100930.81;;;27.74;32.59
47761;BME280;33524;55.434;38.520;2023-05-21T08:42:47;100942.94;;;25.32;31.74
47761;BME280;33524;55.434;38.520;2023-05-21T08:45:20;100938.69;;;28.54;34.16
47761;BME280;33524;55.434;38.520;2023-05-21T08:47:58;100939.22;;;27.26;35.38
47761;BME280;33524;55.434;38.520;2023-05-21T08:50:27;100939.63;;;25.58;39.22
47761;BME280;33524;55.434;38.520;2023-05-21T08:52:57;100940.53;;;26.55;33.97
47761;BME280;33524;55.434;38.520;2023-05-21T08:55:36;100952.06;;;26.35;29.91
47761;BME280;33524;55.434;38.520;2023-05-21T08:58:06;100938.22;;;26.52;33.90
47761;BME280;33524;55.434;38.520;2023-05-21T09:00:35;100934.94;;;28.10;34.81
47761;BME280;33524;55.434;38.520;2023-05-21T09:03:04;100915.59;;;29.58;32.16
47761;BME280;33524;55.434;38.520;2023-05-21T09:05:55;100922.06;;;28.05;32.84
47761;BME280;33524;55.434;38.520;2023-05-21T09:08:30;100932.53;;;26.88;36.57
47761;BME280;33524;55.434;38.520;2023-05-21T09:11:01;100931.28;;;27.71;35.71
47761;BME280;33524;55.434;38.520;2023-05-21T09:13:51;100933.62;;;28.19;31.64
47761;BME280;33524;55.434;38.520;2023-05-21T09:16:22;100935.44;;;27.13;36.44
47761;BME280;33524;55.434;38.520;2023-05-21T09:18:50;100927.59;;;27.45;36.15
47761;BME280;33524;55.434;38.520;2023-05-21T09:21:26;100924.38;;;29.97;31.95
47761;BME280;33524;55.434;38.520;2023-05-21T09:23:56;100926.88;;;28.42;26.79
47761;BME280;33524;55.434;38.520;2023-05-21T09:26:25;100933.81;;;30.44;31.29
47761;BME280;33524;55.434;38.520;2023-05-21T09:28:59;100930.19;;;29.14;25.49
47761;BME280;33524;55.434;38.520;2023-05-21T09:31:28;100941.56;;;28.14;32.23
47761;BME280;33524;55.434;38.520;2023-05-21T09:33:57;100943.41;;;28.20;26.66
47761;BME280;33524;55.434;38.520;2023-05-21T09:36:26;100937.78;;;25.65;29.11
47761;BME280;33524;55.434;38.520;2023-05-21T09:39:27;100944.56;;;26.99;33.63
47761;BME280;33524;55.434;38.520;2023-05-21T09:41:59;100939.91;;;28.90;32.47
47761;BME280;33524;55.434;38.520;2023-05-21T09:44:28;100927.97;;;26.27;33.61
47761;BME280;33524;55.434;38.520;2023-05-21T09:46:56;100929.19;;;29.33;32.50
47761;BME280;33524;55.434;38.520;2023-05-21T09:49:28;100935.91;;;27.37;26.40
47761;BME280;33524;55.434;38.520;2023-05-21T09:51:58;100929.38;;;26.10;38.22
47761;BME280;33524;55.434;38.520;2023-05-21T09:54:31;100930.56;;;29.17;29.69
47761;BME280;33524;55.434;38.520;2023-05-21T09:57:00;100934.63;;;29.77;24.09
47761;BME280;33524;55.434;38.520;2023-05-21T09:59:38;100927.56;;;27.18;26.47
47761;BME280;33524;55.434;38.520;2023-05-21T10:02:20;100931.13;;;25.89;28.65
47761;BME280;33524;55.434;38.520;2023-05-21T10:04:51;100918.34;;;30.74;30.23
47761;BME280;33524;55.434;38.520;2023-05-21T10:07:21;100914.66;;;30.99;30.09
47761;BME280;33524;55.434;38.520;2023-05-21T10:09:53;100914.63;;;27.74;26.05
47761;BME280;33524;55.434;38.520;2023-05-21T10:12:25;100922.00;;;26.38;27.79
47761;BME280;33524;55.434;38.520;2023-05-21T10:15:07;100917.78;;;27.64;25.67
47761;BME280;33524;55.434;38.520;2023-05-21T10:17:37;100938.50;;;26.70;36.28
47761;BME280;33524;55.434;38.520;2023-05-21T10:20:07;100943.69;;;26.59;35.15
47761;BME280;33524;55.434;38.520;2023-05-21T10:22:38;100937.91;;;26.82;36.81
47761;BME280;33524;55.434;38.520;2023-05-21T10:25:07;100942.28;;;26.21;29.57
47761;BME280;33524;55.434;38.520;2023-05-21T10:27:36;100942.50;;;27.08;33.78
47761;BME280;33524;55.434;38.520;2023-05-21T10:30:05;100940.59;;;23.15;32.32
47761;BME280;33524;55.434;38.520;2023-05-21T10:32:34;100945.09;;;23.38;32.63
47761;BME280;33524;55.434;38.520;2023-05-21T10:35:03;100936.31;;;23.44;36.51
47761;BME280;33524;55.434;38.520;2023-05-21T10:37:32;100943.28;;;21.66;34.77
47761;BME280;33524;55.434;38.520;2023-05-21T10:40:00;100951.53;;;20.48;37.71
47761;BME280;33524;55.434;38.520;2023-05-21T10:48:18;100943.97;;;21.27;37.08
47761;BME280;33524;55.434;38.520;2023-05-21T11:00:03;100932.84;;;25.97;37.47
47761;BME280;33524;55.434;38.520;2023-05-21T11:02:37;100929.66;;;26.28;32.78
47761;BME280;33524;55.434;38.520;2023-05-21T11:05:14;100926.72;;;27.11;33.35
47761;BME280;33524;55.434;38.520;2023-05-21T11:07:58;100931.31;;;23.56;32.07
47761;BME280;33524;55.434;38.520;2023-05-21T11:10:38;100936.34;;;22.44;33.29
47761;BME280;33524;55.434;38.520;2023-05-21T11:13:15;100928.06;;;25.36;29.12
47761;BME280;33524;55.434;38.520;2023-05-21T11:16:12;100917.25;;;24.86;37.69
47761;BME280;33524;55.434;38.520;2023-05-21T11:21:10;100943.53;;;22.97;33.16
47761;BME280;33524;55.434;38.520;2023-05-21T11:24:03;100941.84;;;22.50;33.38
47761;BME280;33524;55.434;38.520;2023-05-21T11:29:19;100941.91;;;21.78;34.66
47761;BME280;33524;55.434;38.520;2023-05-21T11:32:00;100941.78;;;20.89;38.81
47761;BME280;33524;55.434;38.520;2023-05-21T11:34:44;100944.41;;;22.90;39.61
47761;BME280;33524;55.434;38.520;2023-05-21T11:39:46;100944.59;;;27.12;34.06
47761;BME280;33524;55.434;38.520;2023-05-21T11:42:37;100941.66;;;23.82;35.19
47761;BME280;33524;55.434;38.520;2023-05-21T11:45:06;100950.38;;;22.06;41.78
47761;BME280;33524;55.434;38.520;2023-05-21T11:47:35;100952.63;;;21.78;41.29
47761;BME280;33524;55.434;38.520;2023-05-21T11:50:10;100953.31;;;24.70;38.47
47761;BME280;33524;55.434;38.520;2023-05-21T11:52:39;100951.66;;;21.22;35.74
47761;BME280;33524;55.434;38.520;2023-05-21T11:55:11;100956.03;;;20.98;36.39
47761;BME280;33524;55.434;38.520;2023-05-21T11:57:45;100948.06;;;23.73;37.17
47761;BME280;33524;55.434;38.520;2023-05-21T12:00:22;100955.34;;;23.87;38.34
47761;BME280;33524;55.434;38.520;2023-05-21T12:02:52;100945.56;;;24.31;36.81
47761;BME280;33524;55.434;38.520;2023-05-21T12:05:23;100954.84;;;22.22;39.50
47761;BME280;33524;55.434;38.520;2023-05-21T12:07:54;100953.66;;;23.33;39.64
47761;BME280;33524;55.434;38.520;2023-05-21T12:10:47;100951.25;;;24.21;36.75
47761;BME280;33524;55.434;38.520;2023-05-21T12:13:16;100950.16;;;22.64;33.93
47761;BME280;33524;55.434;38.520;2023-05-21T12:15:44;100960.22;;;21.33;37.91
47761;BME280;33524;55.434;38.520;2023-05-21T12:18:14;100959.84;;;22.88;32.99
47761;BME280;33524;55.434;38.520;2023-05-21T12:20:43;100960.78;;;21.93;41.22
47761;BME280;33524;55.434;38.520;2023-05-21T12:23:24;100958.03;;;22.57;34.72
47761;BME280;33524;55.434;38.520;2023-05-21T12:26:11;100946.88;;;23.61;38.48
47761;BME280;33524;55.434;38.520;2023-05-21T12:28:39;100951.66;;;24.03;37.36
47761;BME280;33524;55.434;38.520;2023-05-21T12:31:20;100957.53;;;22.30;39.48
47761;BME280;33524;55.434;38.520;2023-05-21T12:33:50;100955.09;;;21.96;34.33
47761;BME280;33524;55.434;38.520;2023-05-21T12:36:41;100955.25;;;21.94;38.17
47761;BME280;33524;55.434;38.520;2023-05-21T12:39:25;100961.03;;;22.23;39.04
47761;BME280;33524;55.434;38.520;2023-05-21T12:41:54;100957.03;;;22.58;39.78
47761;BME280;33524;55.434;38.520;2023-05-21T12:44:22;100947.69;;;23.46;32.63
47761;BME280;33524;55.434;38.520;2023-05-21T12:46:50;100949.91;;;24.47;34.86
47761;BME280;33524;55.434;38.520;2023-05-21T12:49:35;100940.44;;;24.14;35.23
47761;BME280;33524;55.434;38.520;2023-05-21T12:52:07;100952.50;;;21.71;35.60
47761;BME280;33524;55.434;38.520;2023-05-21T12:57:24;100943.62;;;20.81;37.14
47761;BME280;33524;55.434;38.520;2023-05-21T12:59:55;100944.38;;;23.21;35.89
47761;BME280;33524;55.434;38.520;2023-05-21T13:02:40;100944.97;;;21.75;35.66
47761;BME280;33524;55.434;38.520;2023-05-21T13:05:17;100946.47;;;22.17;39.21
47761;BME280;33524;55.434;38.520;2023-05-21T13:08:03;100959.09;;;22.08;34.03
47761;BME280;33524;55.434;38.520;2023-05-21T13:10:31;100956.63;;;21.90;34.01
47761;BME280;33524;55.434;38.520;2023-05-21T13:13:00;100943.28;;;23.83;36.46
47761;BME280;33524;55.434;38.520;2023-05-21T13:15:40;100945.03;;;23.76;36.48
47761;BME280;33524;55.434;38.520;2023-05-21T13:18:11;100954.66;;;22.32;39.50
47761;BME280;33524;55.434;38.520;2023-05-21T13:20:40;100950.88;;;22.10;34.61
47761;BME280;33524;55.434;38.520;2023-05-21T13:23:08;100949.06;;;22.96;36.40
47761;BME280;33524;55.434;38.520;2023-05-21T13:25:38;100949.84;;;20.39;36.69
47761;BME280;33524;55.434;38.520;2023-05-21T13:28:06;100959.97;;;20.27;39.26
47761;BME280;33524;55.434;38.520;2023-05-21T13:30:37;100953.09;;;21.98;34.82